Time;durP1;ratioP1;P1;durP2;ratioP2;P2;SDS_P1;SDS_P2;PMS_P1;PMS_P2;Temp;Humidity;BMP_temperature;BMP_pressure;BME280_temperature;BME280_humidity;BME280_pressure;Samples;Min_cycle;Max_cycle;Signal;HPM_P1;HPM_P2
2024/03/07 00:00:42;;;;;;;13.35;5.07;;;;;;;7.54;100.00;100701.53;5131054;27;20099;-67
2024/03/07 00:03:08;;;;;;;8.70;3.80;;;;;;;7.57;100.00;100701.25;5127300;27;20030;-66
2024/03/07 00:05:33;;;;;;;15.55;4.80;;;;;;;7.60;100.00;100706.19;5132444;27;20031;-66
2024/03/07 00:07:59;;;;;;;11.10;4.45;;;;;;;7.59;100.00;100699.38;5132404;27;20032;-67
2024/03/07 00:10:24;;;;;;;9.75;4.55;;;;;;;7.60;100.00;100700.19;5134414;27;20050;-66
2024/03/07 00:12:50;;;;;;;8.25;3.30;;;;;;;7.60;100.00;100700.19;5132314;27;20076;-66
2024/03/07 00:15:15;;;;;;;8.10;3.90;;;;;;;7.59;100.00;100701.97;5131038;27;20035;-67
2024/03/07 00:17:41;;;;;;;9.13;3.20;;;;;;;7.57;100.00;100703.03;5131104;27;20023;-66
2024/03/07 00:20:14;;;;;;;8.38;2.92;;;;;;;7.56;100.00;100701.41;5131037;27;20462;-66
2024/03/07 00:22:42;;;;;;;7.57;3.50;;;;;;;7.57;100.00;100696.06;5126804;27;20095;-66
2024/03/07 00:25:09;;;;;;;17.17;4.28;;;;;;;7.55;100.00;100703.16;5131101;27;20027;-66
2024/03/07 00:27:38;;;;;;;5.45;3.20;;;;;;;7.58;100.00;100694.28;5131923;27;20034;-66
2024/03/07 00:30:05;;;;;;;11.45;4.90;;;;;;;7.60;100.00;100692.41;5129001;27;20386;-67
2024/03/07 00:32:35;;;;;;;13.00;4.28;;;;;;;7.61;100.00;100702.66;5131453;27;20051;-66
2024/03/07 00:35:02;;;;;;;8.02;3.60;;;;;;;7.61;100.00;100707.84;5130388;27;20031;-66
2024/03/07 00:37:28;;;;;;;6.45;3.78;;;;;;;7.66;100.00;100704.91;5130281;27;20027;-66
2024/03/07 00:39:54;;;;;;;6.65;2.00;;;;;;;7.65;100.00;100698.06;5130647;27;20031;-67
2024/03/07 00:42:19;;;;;;;4.03;1.80;;;;;;;7.62;100.00;100706.91;5128834;27;20046;-67
2024/03/07 00:44:44;;;;;;;3.90;1.55;;;;;;;7.58;100.00;100704.66;5131587;27;20035;-67
2024/03/07 00:47:10;;;;;;;2.47;1.20;;;;;;;7.54;100.00;100705.88;5130544;27;20105;-66
2024/03/07 00:49:36;;;;;;;2.92;1.40;;;;;;;7.51;100.00;100706.94;5129103;27;20178;-67
2024/03/07 00:52:01;;;;;;;4.32;2.08;;;;;;;7.52;100.00;100708.59;5130699;27;20035;-67
2024/03/07 00:54:27;;;;;;;3.17;1.25;;;;;;;7.48;100.00;100702.00;5130984;27;20105;-66
2024/03/07 00:56:53;;;;;;;3.38;1.35;;;;;;;7.47;100.00;100707.28;5129628;27;20023;-66
2024/03/07 00:59:19;;;;;;;10.32;4.13;;;;;;;7.50;100.00;100704.47;5130292;27;20033;-66
2024/03/07 01:01:45;;;;;;;3.10;1.45;;;;;;;7.53;100.00;100706.81;5122667;27;20470;-66
2024/03/07 01:04:11;;;;;;;4.25;1.95;;;;;;;7.60;100.00;100715.75;5129395;27;20023;-66
2024/03/07 01:06:37;;;;;;;3.85;1.80;;;;;;;7.64;100.00;100706.78;5131372;27;20035;-66
2024/03/07 01:09:03;;;;;;;3.40;1.75;;;;;;;7.67;100.00;100698.78;5129600;27;20103;-66
2024/03/07 01:11:29;;;;;;;3.80;1.65;;;;;;;7.69;100.00;100701.25;5131216;27;20188;-66
2024/03/07 01:13:55;;;;;;;4.30;1.40;;;;;;;7.64;100.00;100707.63;5131325;27;20058;-66
2024/03/07 01:16:21;;;;;;;3.85;1.52;;;;;;;7.59;100.00;100699.38;5130446;27;20493;-67
2024/03/07 01:18:46;;;;;;;2.78;1.10;;;;;;;7.62;100.00;100698.31;5129900;27;20031;-66
2024/03/07 01:21:12;;;;;;;5.90;1.27;;;;;;;7.65;100.00;100698.88;5130025;27;20034;-66
2024/03/07 01:23:37;;;;;;;5.20;1.67;;;;;;;7.59;100.00;100701.97;5131034;27;20114;-66
2024/03/07 01:26:03;;;;;;;4.78;1.52;;;;;;;7.57;100.00;100696.06;5128479;27;20031;-66
2024/03/07 01:28:29;;;;;;;3.70;1.52;;;;;;;7.62;100.00;100690.53;5130245;27;20035;-66
2024/03/07 01:30:56;;;;;;;2.22;1.48;;;;;;;7.56;100.00;100697.00;5130114;27;20023;-66
2024/03/07 01:33:22;;;;;;;3.55;1.40;;;;;;;7.53;100.00;100699.88;5128862;27;20027;-66
2024/03/07 01:35:48;;;;;;;4.07;1.42;;;;;;;7.55;100.00;100697.97;5129963;27;20027;-66
2024/03/07 01:38:14;;;;;;;4.25;1.10;;;;;;;7.62;100.00;100693.13;5129870;27;20038;-66
2024/03/07 01:40:40;;;;;;;5.60;1.58;;;;;;;7.58;100.00;100692.53;5131152;27;20031;-66
2024/03/07 01:43:07;;;;;;;4.75;2.05;;;;;;;7.53;100.00;100686.91;5129979;27;20035;-66
2024/03/07 01:45:32;;;;;;;4.43;1.45;;;;;;;7.53;100.00;100686.91;5130696;27;20063;-66
2024/03/07 01:47:58;;;;;;;4.90;1.70;;;;;;;7.53;100.00;100679.13;5120627;27;20059;-67
2024/03/07 01:50:23;;;;;;;7.18;1.33;;;;;;;7.53;100.00;100681.72;5128231;27;20080;-66
2024/03/07 01:52:51;;;;;;;3.33;1.10;;;;;;;7.49;100.00;100680.31;5128803;27;20479;-67
2024/03/07 01:55:17;;;;;;;4.13;2.00;;;;;;;7.51;100.00;100680.19;5128852;27;20043;-66
2024/03/07 01:57:43;;;;;;;4.60;1.77;;;;;;;7.52;100.00;100684.44;5129580;27;20035;-67
2024/03/07 02:00:09;;;;;;;3.40;1.65;;;;;;;7.53;100.00;100680.91;5129464;27;20110;-66
2024/03/07 02:02:35;;;;;;;6.07;1.27;;;;;;;7.53;100.00;100673.13;5130453;27;20027;-66
2024/03/07 02:05:01;;;;;;;4.47;1.52;;;;;;;7.55;100.00;100677.25;5127728;27;20100;-66
2024/03/07 02:07:26;;;;;;;3.53;1.55;;;;;;;7.54;100.00;100675.59;5130560;27;20082;-66
2024/03/07 02:10:00;;;;;;;4.30;1.42;;;;;;;7.48;100.00;100675.25;5130403;27;20466;-66
2024/03/07 02:12:26;;;;;;;2.97;1.42;;;;;;;7.46;100.00;100677.13;5130249;27;20031;-66
2024/03/07 02:14:52;;;;;;;3.85;1.38;;;;;;;7.42;100.00;100680.91;5130431;27;20039;-67
2024/03/07 02:17:18;;;;;;;5.93;1.70;;;;;;;7.38;100.00;100669.94;5131872;27;20478;-66
2024/03/07 02:19:43;;;;;;;8.00;1.85;;;;;;;7.40;100.00;100667.22;5128105;27;20104;-67
2024/03/07 02:22:09;;;;;;;3.83;1.50;;;;;;;7.44;100.00;100661.69;5127875;27;20474;-66
2024/03/07 02:24:34;;;;;;;4.38;1.55;;;;;;;7.44;100.00;100663.47;5130273;27;20488;-66
2024/03/07 02:26:59;;;;;;;5.25;1.80;;;;;;;7.45;100.00;100657.34;5126257;27;20122;-66
2024/03/07 02:29:26;;;;;;;3.97;1.63;;;;;;;7.43;100.00;100667.00;5129703;27;20088;-66
2024/03/07 02:31:51;;;;;;;3.47;1.50;;;;;;;7.33;100.00;100661.69;5130222;27;20070;-66
2024/03/07 02:34:17;;;;;;;5.07;2.42;;;;;;;7.34;100.00;100663.34;5127786;27;20059;-66
2024/03/07 02:36:42;;;;;;;4.57;1.58;;;;;;;7.36;100.00;100664.06;5130282;27;20023;-66
2024/03/07 02:39:09;;;;;;;3.55;1.73;;;;;;;7.34;100.00;100660.75;5130968;27;20027;-66
2024/03/07 02:41:35;;;;;;;5.45;2.35;;;;;;;7.35;100.00;100664.16;5134115;27;20506;-65
2024/03/07 02:44:03;;;;;;;4.90;2.08;;;;;;;7.30;100.00;100660.16;5133197;27;20035;-66
2024/03/07 02:46:28;;;;;;;3.63;1.77;;;;;;;7.29;100.00;100660.28;5132786;27;20049;-66
2024/03/07 02:48:54;;;;;;;5.43;1.67;;;;;;;7.24;100.00;100667.59;5128490;27;20331;-66
2024/03/07 02:51:19;;;;;;;3.47;1.60;;;;;;;7.23;100.00;100658.16;5133181;27;20500;-66
2024/03/07 02:53:45;;;;;;;6.93;1.50;;;;;;;7.14;100.00;100656.28;5133545;27;20035;-67
2024/03/07 02:56:11;;;;;;;5.10;1.83;;;;;;;7.11;100.00;100661.69;5131604;27;20512;-66
2024/03/07 02:58:36;;;;;;;3.97;2.10;;;;;;;7.05;100.00;100669.97;5133855;27;20059;-67
2024/03/07 03:01:05;;;;;;;4.45;1.75;;;;;;;7.03;100.00;100664.06;5130261;27;20066;-67
2024/03/07 03:03:33;;;;;;;4.40;1.90;;;;;;;6.99;100.00;100663.47;5132334;27;20058;-66
2024/03/07 03:05:59;;;;;;;4.03;1.63;;;;;;;6.97;100.00;100668.78;5133479;27;20031;-66
2024/03/07 03:08:28;;;;;;;4.15;1.77;;;;;;;6.93;100.00;100663.94;5132808;27;20495;-66
2024/03/07 03:10:54;;;;;;;3.88;1.38;;;;;;;6.92;100.00;100667.47;5133478;27;20051;-66
2024/03/07 03:13:19;;;;;;;7.43;1.77;;;;;;;6.92;100.00;100668.28;5132743;27;22945;-67
2024/03/07 03:15:45;;;;;;;4.22;1.85;;;;;;;6.92;100.00;100668.28;5128789;27;20511;-66
2024/03/07 03:18:12;;;;;;;4.85;1.92;;;;;;;6.91;100.00;100673.59;5130660;27;20029;-66
2024/03/07 03:20:42;;;;;;;4.53;1.63;;;;;;;6.88;100.00;100672.06;5130540;27;20031;-66
2024/03/07 03:23:13;;;;;;;3.65;1.77;;;;;;;6.80;100.00;100676.97;5131111;27;20386;-66
2024/03/07 03:25:39;;;;;;;6.22;2.20;;;;;;;6.76;100.00;100677.31;5133036;27;20108;-66
2024/03/07 03:28:06;;;;;;;4.78;1.75;;;;;;;6.67;100.00;100676.22;5132263;27;20468;-65
2024/03/07 03:30:32;;;;;;;4.57;2.08;;;;;;;6.65;100.00;100675.53;5125321;27;20446;-67
2024/03/07 03:32:58;;;;;;;3.80;1.52;;;;;;;6.67;100.00;100673.66;5132646;27;20481;-66
2024/03/07 03:35:24;;;;;;;4.63;2.30;;;;;;;6.68;100.00;100675.28;5131264;27;20042;-66
2024/03/07 03:37:49;;;;;;;7.03;2.20;;;;;;;6.61;100.00;100672.38;5131408;27;20084;-66
2024/03/07 03:40:15;;;;;;;7.63;1.95;;;;;;;6.56;100.00;100674.47;5131995;27;20512;-66
2024/03/07 03:42:42;;;;;;;7.60;1.92;;;;;;;6.52;100.00;100680.81;5131523;27;20031;-66
2024/03/07 03:45:09;;;;;;;7.93;1.70;;;;;;;6.50;100.00;100680.09;5129892;27;20031;-65
2024/03/07 03:47:38;;;;;;;4.47;2.22;;;;;;;6.44;100.00;100679.72;5129216;27;20031;-66
2024/03/07 03:50:07;;;;;;;3.35;1.45;;;;;;;6.26;100.00;100682.69;5128454;27;20474;-66
2024/03/07 03:52:34;;;;;;;3.28;1.48;;;;;;;6.13;100.00;100683.72;5125758;27;20062;-66
2024/03/07 03:55:00;;;;;;;3.45;1.55;;;;;;;6.00;100.00;100683.78;5131339;27;20409;-67
2024/03/07 03:57:27;;;;;;;3.80;1.80;;;;;;;5.91;100.00;100687.00;5132575;27;20031;-66
2024/03/07 03:59:53;;;;;;;7.90;2.30;;;;;;;5.93;100.00;100693.72;5132690;27;20035;-66
2024/03/07 04:02:18;;;;;;;7.00;1.65;;;;;;;5.81;100.00;100691.97;5129963;27;20027;-66
2024/03/07 04:04:45;;;;;;;7.05;1.40;;;;;;;5.76;100.00;100696.63;5132362;27;20042;-67
2024/03/07 04:07:12;;;;;;;5.55;1.98;;;;;;;5.73;100.00;100702.03;5131335;27;20493;-66
2024/03/07 04:09:38;;;;;;;5.70;2.10;;;;;;;5.85;100.00;100692.59;5130976;27;20053;-66
2024/03/07 04:12:03;;;;;;;7.57;1.95;;;;;;;5.86;100.00;100691.66;5138757;27;20486;-67
2024/03/07 04:14:32;;;;;;;9.82;3.85;;;;;;;5.95;100.00;100691.03;5129667;27;20028;-67
2024/03/07 04:16:58;;;;;;;9.98;2.80;;;;;;;5.99;100.00;100687.28;5112514;27;20059;-67
2024/03/07 04:19:23;;;;;;;3.70;1.75;;;;;;;6.05;100.00;100688.63;5129777;27;20054;-66
2024/03/07 04:21:49;;;;;;;5.55;1.95;;;;;;;6.08;100.00;100691.81;5131952;27;20027;-66
2024/03/07 04:24:14;;;;;;;6.32;2.35;;;;;;;6.05;100.00;100688.63;5131063;27;20031;-66
2024/03/07 04:26:42;;;;;;;6.50;2.38;;;;;;;6.04;100.00;100698.13;5130610;27;20087;-66
2024/03/07 04:29:11;;;;;;;5.45;2.35;;;;;;;5.96;100.00;100685.75;5130182;27;20027;-66
2024/03/07 04:31:37;;;;;;;6.82;2.58;;;;;;;5.96;100.00;100685.75;5127347;27;20517;-66
2024/03/07 04:34:02;;;;;;;6.35;2.80;;;;;;;5.95;100.00;100685.88;5129832;27;20474;-66
2024/03/07 04:36:28;;;;;;;6.85;3.20;;;;;;;5.97;100.00;100690.00;5131786;27;20242;-66
2024/03/07 04:38:54;;;;;;;4.55;1.63;;;;;;;5.96;100.00;100685.75;5128501;27;20114;-66
2024/03/07 04:41:20;;;;;;;8.30;2.58;;;;;;;5.96;100.00;100700.44;5131018;27;20516;-66
2024/03/07 04:43:46;;;;;;;6.22;2.55;;;;;;;5.95;100.00;100701.38;5131484;27;20023;-67
2024/03/07 04:46:12;;;;;;;9.15;2.15;;;;;;;5.94;100.00;100694.56;5129036;27;20038;-66
2024/03/07 04:48:37;;;;;;;6.15;2.80;;;;;;;5.94;100.00;100699.72;5126013;27;20031;-66
2024/03/07 04:51:03;;;;;;;5.13;2.80;;;;;;;5.92;100.00;100701.59;5130280;27;20031;-66
2024/03/07 04:53:29;;;;;;;9.07;3.08;;;;;;;5.92;100.00;100701.59;5129541;27;20047;-67
2024/03/07 04:55:55;;;;;;;5.30;2.22;;;;;;;5.90;100.00;100701.72;5127217;27;20039;-66
2024/03/07 04:58:21;;;;;;;6.97;2.90;;;;;;;5.89;100.00;100701.81;5130349;27;20023;-67
2024/03/07 05:00:47;;;;;;;5.68;2.60;;;;;;;5.92;100.00;100706.78;5128496;27;20031;-67
2024/03/07 05:03:12;;;;;;;8.45;2.80;;;;;;;5.93;100.00;100713.59;5129595;27;20023;-66
2024/03/07 05:05:38;;;;;;;6.30;2.50;;;;;;;5.95;100.00;100707.38;5128862;27;20397;-66
2024/03/07 05:08:04;;;;;;;5.03;2.05;;;;;;;5.95;100.00;100706.56;5130025;27;20658;-66
2024/03/07 05:10:30;;;;;;;8.90;2.97;;;;;;;5.91;100.00;100705.13;5128501;27;20509;-65
2024/03/07 05:12:58;;;;;;;5.22;1.88;;;;;;;5.90;100.00;100709.47;5130778;27;20075;-66
2024/03/07 05:15:25;;;;;;;4.45;2.55;;;;;;;5.92;100.00;100717.13;5103901;27;20027;-66
2024/03/07 05:17:56;;;;;;;5.57;2.35;;;;;;;5.92;100.00;100715.34;5130948;27;20376;-66
2024/03/07 05:20:21;;;;;;;6.72;2.30;;;;;;;5.94;100.00;100723.00;5128298;27;20023;-66
2024/03/07 05:22:50;;;;;;;5.63;2.45;;;;;;;5.93;100.00;100708.41;5130977;27;20379;-66
2024/03/07 05:25:18;;;;;;;10.23;2.80;;;;;;;5.93;100.00;100714.41;5129671;27;20023;-66
2024/03/07 05:27:44;;;;;;;4.55;2.33;;;;;;;5.94;100.00;100721.25;5131056;27;20489;-67
2024/03/07 05:30:11;;;;;;;10.23;2.75;;;;;;;5.93;100.00;100729.94;5128110;27;20038;-66
2024/03/07 05:32:37;;;;;;;5.60;1.98;;;;;;;5.93;100.00;100723.94;5129657;27;20406;-66
2024/03/07 05:35:03;;;;;;;6.15;2.20;;;;;;;5.94;100.00;100729.00;5130068;27;20042;-66
2024/03/07 05:37:29;;;;;;;4.15;2.03;;;;;;;5.95;100.00;100720.31;5130580;27;20039;-66
2024/03/07 05:39:54;;;;;;;7.32;2.65;;;;;;;5.94;100.00;100726.41;5130905;27;20039;-66
2024/03/07 05:42:20;;;;;;;4.03;1.98;;;;;;;5.94;100.00;100730.75;5129861;27;20097;-66
2024/03/07 05:44:45;;;;;;;6.28;1.70;;;;;;;5.93;100.00;100729.13;5100994;27;20497;-66
2024/03/07 05:47:13;;;;;;;7.93;2.28;;;;;;;5.95;100.00;100730.66;5129429;27;20449;-66
2024/03/07 05:49:39;;;;;;;4.80;1.67;;;;;;;5.99;100.00;100733.84;5128577;27;20031;-67
2024/03/07 05:52:07;;;;;;;6.70;2.65;;;;;;;6.00;100.00;100743.25;5129842;27;20031;-66
2024/03/07 05:54:33;;;;;;;5.85;3.03;;;;;;;6.01;100.00;100741.50;5126889;27;20368;-66
2024/03/07 05:56:59;;;;;;;11.80;3.47;;;;;;;5.98;100.00;100752.88;5123567;27;20046;-66
2024/03/07 05:59:25;;;;;;;7.13;2.22;;;;;;;5.95;100.00;100747.94;5120912;27;20047;-66
2024/03/07 06:01:51;;;;;;;7.63;1.98;;;;;;;5.96;100.00;100747.00;5105868;28;20035;-67
2024/03/07 06:04:17;;;;;;;9.45;2.20;;;;;;;5.96;100.00;100749.59;5129463;27;20436;-67
2024/03/07 06:06:42;;;;;;;7.85;2.10;;;;;;;5.99;100.00;100754.53;5130223;27;20543;-66
2024/03/07 06:09:09;;;;;;;5.50;2.00;;;;;;;6.00;100.00;100753.63;5129342;27;20083;-67
2024/03/07 06:11:36;;;;;;;5.75;2.80;;;;;;;6.03;100.00;100760.31;5134336;27;20055;-67
2024/03/07 06:14:08;;;;;;;5.97;2.95;;;;;;;6.04;100.00;100755.06;5131164;27;20028;-67
2024/03/07 06:16:38;;;;;;;6.75;2.35;;;;;;;6.04;100.00;100765.41;5133959;27;20126;-67
2024/03/07 06:19:04;;;;;;;6.43;2.40;;;;;;;6.08;100.00;100766.84;5111695;27;20473;-66
2024/03/07 06:21:33;;;;;;;6.57;2.47;;;;;;;6.09;100.00;100754.72;5134186;27;20039;-66
2024/03/07 06:23:59;;;;;;;6.60;2.40;;;;;;;6.09;100.00;100771.06;5129242;27;20023;-68
2024/03/07 06:29:16;;;;;;;6.50;1.80;;;;;;;6.12;100.00;100773.44;5133446;27;20051;-67
2024/03/07 06:31:42;;;;;;;8.23;2.10;;;;;;;6.16;100.00;100777.44;5130383;27;20091;-67
2024/03/07 06:34:08;;;;;;;7.47;2.47;;;;;;;6.17;100.00;100771.31;5125115;27;20434;-67
2024/03/07 06:36:34;;;;;;;4.10;1.80;;;;;;;6.25;100.00;100770.78;5132468;27;20066;-67
2024/03/07 06:39:00;;;;;;;5.13;1.60;;;;;;;6.37;100.00;100776.84;5134342;27;20031;-67
2024/03/07 06:41:26;;;;;;;5.38;2.30;;;;;;;6.47;100.00;100773.50;5134327;27;20035;-67
2024/03/07 06:43:55;;;;;;;6.28;2.15;;;;;;;6.56;100.00;100778.03;5129360;27;20092;-67
2024/03/07 06:46:20;;;;;;;6.75;2.28;;;;;;;6.61;100.00;100775.09;5131569;27;20595;-67
2024/03/07 06:48:46;;;;;;;5.78;2.63;;;;;;;6.64;100.00;100772.25;5130353;27;20504;-66
2024/03/07 06:51:12;;;;;;;7.78;2.55;;;;;;;6.76;100.00;100776.56;5129557;27;20031;-65
2024/03/07 06:53:37;;;;;;;5.65;2.13;;;;;;;6.84;100.00;100784.59;5133484;27;20106;-66
2024/03/07 06:56:03;;;;;;;6.43;2.40;;;;;;;6.93;100.00;100781.31;5113256;27;20045;-66
2024/03/07 06:58:28;;;;;;;5.10;2.55;;;;;;;7.07;100.00;100787.25;5134138;27;20059;-66
2024/03/07 07:00:54;;;;;;;10.63;2.78;;;;;;;7.10;100.00;100784.41;5129145;27;20118;-66
2024/03/07 07:03:23;;;;;;;5.80;2.30;;;;;;;7.21;100.00;100792.22;5127221;27;20088;-66
2024/03/07 07:05:49;;;;;;;6.57;2.10;;;;;;;7.33;100.00;100781.75;5132932;27;20393;-66
2024/03/07 07:08:15;;;;;;;8.68;2.30;;;;;;;7.32;100.00;100781.88;5126596;27;20035;-66
2024/03/07 07:10:42;;;;;;;5.57;2.17;;;;;;;7.54;100.00;100784.50;5130132;27;20047;-66
2024/03/07 07:13:11;;;;;;;7.75;2.95;;;;;;;8.44;100.00;100784.38;5131794;27;20023;-65
2024/03/07 07:15:36;;;;;;;6.22;3.10;;;;;;;8.30;98.02;100780.25;5133021;27;20458;-66
2024/03/07 07:18:03;;;;;;;5.50;2.40;;;;;;;7.86;100.00;100783.75;5133249;27;20749;-65
2024/03/07 07:20:28;;;;;;;7.60;2.65;;;;;;;7.80;100.00;100784.25;5133725;27;20035;-65
2024/03/07 07:22:54;;;;;;;7.22;2.42;;;;;;;8.17;99.80;100785.59;5129498;27;20038;-65
2024/03/07 07:25:21;;;;;;;5.22;2.58;;;;;;;8.71;97.46;100782.16;5128984;27;20448;-65
2024/03/07 07:27:51;;;;;;;5.78;2.33;;;;;;;8.80;94.48;100783.19;5132909;27;20050;-65
2024/03/07 07:30:18;;;;;;;4.72;2.03;;;;;;;8.88;94.84;100779.00;5130745;27;20513;-65
2024/03/07 07:32:45;;;;;;;8.00;3.00;;;;;;;9.06;94.47;100781.84;5131564;27;20118;-66
2024/03/07 07:35:12;;;;;;;10.40;2.83;;;;;;;9.33;92.18;100783.94;5130296;27;20550;-66
2024/03/07 07:37:41;;;;;;;7.10;2.05;;;;;;;9.20;92.43;100783.31;5133380;27;20107;-66
2024/03/07 07:40:18;;;;;;;8.43;2.60;;;;;;;8.62;94.38;100788.09;5132632;27;20112;-67
2024/03/07 07:42:46;;;;;;;7.90;2.40;;;;;;;8.44;96.98;100780.03;5129432;27;20398;-66
2024/03/07 07:45:12;;;;;;;5.50;2.35;;;;;;;8.23;96.26;100782.50;5129086;27;20474;-66
2024/03/07 07:47:49;;;;;;;5.05;2.13;;;;;;;8.32;98.53;100779.22;5122973;27;20482;-66
2024/03/07 07:50:19;;;;;;;7.32;2.53;;;;;;;8.52;96.84;100782.81;5107757;27;20385;-66
2024/03/07 07:52:53;;;;;;;6.80;2.00;;;;;;;9.22;93.31;100791.78;5124209;27;20508;-66
2024/03/07 07:55:23;;;;;;;6.38;2.05;;;;;;;9.15;92.03;100796.69;5131964;27;20039;-66
2024/03/07 07:57:53;;;;;;;5.45;2.35;;;;;;;9.10;91.50;100792.81;5109934;27;20089;-69
2024/03/07 08:00:22;;;;;;;5.45;2.17;;;;;;;8.92;94.25;100790.78;5127872;27;20031;-69
2024/03/07 08:03:17;;;;;;;8.45;2.05;;;;;;;8.90;93.61;100789.28;5132181;27;20079;-69
2024/03/07 08:05:43;;;;;;;7.68;2.05;;;;;;;8.89;93.08;100792.81;5124774;27;20103;-69
2024/03/07 08:08:11;;;;;;;6.82;2.55;;;;;;;8.82;92.19;100789.91;5131488;27;20450;-69
2024/03/07 08:10:37;;;;;;;6.50;2.03;;;;;;;8.75;92.23;100799.13;5132407;27;21531;-69
2024/03/07 08:13:08;;;;;;;8.35;2.92;;;;;;;8.74;92.67;100799.25;5131734;27;20035;-69
2024/03/07 08:15:34;;;;;;;5.55;1.90;;;;;;;8.76;93.87;100797.38;5133011;27;20088;-69
2024/03/07 08:18:00;;;;;;;6.75;3.13;;;;;;;8.79;93.24;100797.94;5133418;27;20038;-69
2024/03/07 08:20:26;;;;;;;5.75;2.63;;;;;;;8.84;93.19;100792.38;5131895;27;20509;-69
2024/03/07 08:22:53;;;;;;;5.45;2.25;;;;;;;8.95;93.60;100798.34;5133923;27;20038;-69
2024/03/07 08:25:26;;;;;;;6.90;2.60;;;;;;;9.02;91.35;100795.22;5132591;27;20042;-69
2024/03/07 08:27:54;;;;;;;9.50;2.10;;;;;;;9.12;93.42;100802.13;5135572;27;20031;-69
2024/03/07 08:30:21;;;;;;;5.45;1.77;;;;;;;9.19;93.31;100798.06;5134276;27;20041;-69
2024/03/07 08:32:48;;;;;;;6.93;2.33;;;;;;;9.27;93.27;100797.44;5132538;27;20039;-69
2024/03/07 08:35:15;;;;;;;5.00;2.20;;;;;;;9.27;91.68;100794.84;5127953;27;20038;-69
2024/03/07 08:37:57;;;;;;;11.20;2.90;;;;;;;9.33;89.23;100799.53;5131166;27;20114;-69
2024/03/07 08:40:30;;;;;;;7.15;2.83;;;;;;;9.49;89.56;100792.06;5130032;27;20523;-69
2024/03/07 08:42:56;;;;;;;9.30;2.97;;;;;;;9.84;93.92;100796.91;5131570;27;20066;-69
2024/03/07 08:45:22;;;;;;;11.95;2.35;;;;;;;10.03;94.29;100801.31;5130959;27;20047;-69
2024/03/07 08:47:49;;;;;;;12.60;2.40;;;;;;;9.93;90.12;100792.66;5131152;27;20118;-69
2024/03/07 08:50:17;;;;;;;7.78;2.70;;;;;;;9.93;91.63;100797.84;5130522;27;20096;-69
2024/03/07 08:52:44;;;;;;;9.75;2.47;;;;;;;10.17;90.81;100790.53;5131129;27;20132;-69
2024/03/07 08:55:12;;;;;;;6.25;2.70;;;;;;;10.46;86.56;100788.00;5128573;27;20481;-69
2024/03/07 08:57:39;;;;;;;5.57;1.90;;;;;;;10.78;85.50;100790.34;5127141;27;20473;-69
2024/03/07 09:00:10;;;;;;;8.15;2.72;;;;;;;10.95;85.60;100791.41;5128096;27;20466;-69
2024/03/07 09:02:37;;;;;;;7.55;2.92;;;;;;;10.95;85.34;100787.03;5108222;27;20413;-69
2024/03/07 09:05:04;;;;;;;6.32;2.15;;;;;;;11.00;86.54;100786.59;5128851;27;20035;-69
2024/03/07 09:07:30;;;;;;;7.35;2.85;;;;;;;11.32;84.77;100783.69;5131273;27;20035;-69
2024/03/07 09:09:56;;;;;;;5.40;2.58;;;;;;;11.46;86.24;100780.59;5128501;27;20120;-69
2024/03/07 09:12:21;;;;;;;3.83;2.47;;;;;;;11.24;88.14;100787.00;5130836;27;20061;-69
2024/03/07 09:14:48;;;;;;;7.07;2.65;;;;;;;11.00;88.47;100783.19;5128913;27;20069;-69
2024/03/07 09:17:13;;;;;;;4.75;1.92;;;;;;;11.01;88.86;100787.44;5129164;27;20023;-69
2024/03/07 09:19:39;;;;;;;5.10;2.03;;;;;;;10.93;90.26;100783.72;5130309;27;20025;-69
2024/03/07 09:22:04;;;;;;;6.50;1.95;;;;;;;10.88;91.46;100785.94;5127217;27;20386;-69
2024/03/07 09:24:31;;;;;;;3.75;2.05;;;;;;;10.80;86.58;100783.22;5131192;27;20061;-69
2024/03/07 09:26:56;;;;;;;6.75;2.53;;;;;;;10.89;91.47;100784.97;5131005;27;20039;-69
2024/03/07 09:29:23;;;;;;;3.47;1.83;;;;;;;11.01;89.29;100769.19;5130392;27;20033;-69
2024/03/07 09:31:53;;;;;;;4.40;1.52;;;;;;;11.14;84.80;100774.94;5131109;27;20118;-69
2024/03/07 09:34:20;;;;;;;11.27;2.55;;;;;;;11.42;82.49;100768.78;5123842;27;20028;-69
2024/03/07 09:36:46;;;;;;;4.55;2.05;;;;;;;11.53;80.70;100773.00;5128305;27;20038;-70
2024/03/07 09:39:14;;;;;;;5.60;1.63;;;;;;;11.79;82.92;100775.84;5128786;27;20424;-70
2024/03/07 09:41:39;;;;;;;3.35;1.90;;;;;;;11.93;79.16;100773.53;5130819;27;20118;-70
2024/03/07 09:44:05;;;;;;;5.40;2.22;;;;;;;12.17;82.95;100769.56;5130077;27;20106;-70
2024/03/07 09:46:31;;;;;;;4.63;2.47;;;;;;;12.25;83.90;100773.09;5130964;27;20478;-70
2024/03/07 09:48:58;;;;;;;2.78;1.40;;;;;;;12.20;84.38;100767.50;5128175;27;20046;-69
2024/03/07 09:51:24;;;;;;;5.03;2.38;;;;;;;11.99;83.06;100771.31;5130308;27;20031;-70
2024/03/07 09:53:52;;;;;;;4.65;1.92;;;;;;;11.87;86.30;100765.47;5130637;27;20027;-70
2024/03/07 09:56:21;;;;;;;5.68;2.28;;;;;;;11.86;86.30;100766.44;5129226;27;20054;-70
2024/03/07 09:58:56;;;;;;;4.85;2.38;;;;;;;11.82;85.27;100763.28;5130245;27;20095;-70
2024/03/07 10:01:27;;;;;;;7.38;2.03;;;;;;;11.87;86.48;100768.91;5129592;27;20034;-70
2024/03/07 10:03:58;;;;;;;5.57;2.40;;;;;;;11.95;87.11;100773.41;5129611;27;20027;-70
2024/03/07 10:06:23;;;;;;;8.07;2.13;;;;;;;11.91;83.78;100767.66;5128448;27;20029;-70
2024/03/07 10:08:50;;;;;;;5.93;2.28;;;;;;;11.93;82.54;100768.31;5130497;27;20122;-70
2024/03/07 10:11:16;;;;;;;4.93;1.85;;;;;;;11.96;78.52;100767.22;5127999;27;20054;-70
2024/03/07 10:13:42;;;;;;;7.30;1.52;;;;;;;12.16;82.75;100763.53;5129681;27;20158;-70
2024/03/07 10:16:08;;;;;;;7.40;1.63;;;;;;;12.40;83.27;100776.00;5129627;27;20481;-70
2024/03/07 10:18:41;;;;;;;7.53;2.20;;;;;;;12.70;84.29;100772.19;5130290;27;20039;-70
2024/03/07 10:21:07;;;;;;;6.50;2.00;;;;;;;12.86;84.32;100772.31;5129308;27;20038;-70
2024/03/07 10:23:34;;;;;;;5.60;2.10;;;;;;;12.61;79.42;100773.09;5111751;28;20541;-70
2024/03/07 10:26:00;;;;;;;7.68;2.83;;;;;;;12.29;71.18;100770.97;5129413;27;20060;-70
2024/03/07 10:28:27;;;;;;;4.53;2.10;;;;;;;12.02;77.07;100765.81;5130529;27;20076;-70
2024/03/07 10:30:53;;;;;;;4.47;2.10;;;;;;;12.15;81.36;100767.09;5130222;27;20559;-70
2024/03/07 10:33:19;;;;;;;5.28;2.05;;;;;;;12.53;81.53;100765.19;5129679;27;20077;-70
2024/03/07 10:35:51;;;;;;;3.85;1.73;;;;;;;12.62;81.41;100765.09;5130379;27;20063;-70
2024/03/07 10:38:18;;;;;;;4.18;1.83;;;;;;;12.82;82.67;100770.13;5129657;27;20031;-70
2024/03/07 10:40:47;;;;;;;5.18;2.13;;;;;;;12.90;82.48;100765.81;5130356;27;20031;-70
2024/03/07 10:43:14;;;;;;;7.00;2.50;;;;;;;13.01;82.42;100769.16;5129517;27;20045;-70
2024/03/07 10:45:47;;;;;;;6.72;2.63;;;;;;;12.94;81.18;100767.13;5130050;27;20046;-70
2024/03/07 10:48:16;;;;;;;4.47;2.10;;;;;;;13.12;81.36;100776.75;5127301;27;20035;-70
2024/03/07 10:51:09;;;;;;;5.15;2.10;;;;;;;13.23;76.51;100768.69;5130176;27;20042;-70
2024/03/07 10:54:09;;;;;;;6.53;1.70;;;;;;;13.09;73.25;100766.59;5126728;27;20031;-70
2024/03/07 10:56:56;;;;;;;6.95;1.75;;;;;;;12.95;73.67;100765.34;5127000;27;20555;-70
2024/03/07 10:59:27;;;;;;;6.07;1.65;;;;;;;13.18;80.82;100761.31;5129356;27;20046;-69
2024/03/07 11:02:16;;;;;;;4.95;2.17;;;;;;;13.27;77.53;100755.13;5133884;27;20555;-69
2024/03/07 11:04:41;;;;;;;6.30;2.05;;;;;;;13.13;79.77;100753.06;5133704;27;20446;-70
2024/03/07 11:07:10;;;;;;;7.70;2.47;;;;;;;12.99;77.08;100758.03;5133063;27;20140;-70
2024/03/07 11:09:36;;;;;;;4.45;1.60;;;;;;;12.78;75.83;100753.13;5133538;27;20026;-69
2024/03/07 11:12:03;;;;;;;5.53;2.38;;;;;;;12.79;77.32;100754.75;5132461;27;20084;-69
2024/03/07 11:14:30;;;;;;;6.78;2.58;;;;;;;12.76;75.12;100749.84;5133601;27;20461;-69
2024/03/07 11:16:55;;;;;;;4.57;1.70;;;;;;;12.67;75.58;100750.75;5133420;27;20064;-69
2024/03/07 11:19:29;;;;;;;8.32;2.25;;;;;;;12.81;74.52;100748.41;5127902;27;20031;-69
2024/03/07 11:21:56;;;;;;;5.22;1.60;;;;;;;13.17;78.45;100743.13;5119857;27;20035;-69
2024/03/07 11:24:26;;;;;;;4.57;2.10;;;;;;;13.40;78.97;100741.63;5127033;27;20118;-69
2024/03/07 11:27:04;;;;;;;4.00;1.65;;;;;;;13.59;75.69;100733.53;5122900;27;20051;-69
2024/03/07 11:29:52;;;;;;;3.35;1.80;;;;;;;13.59;73.71;100732.72;5120619;27;20031;-69